Time;durP1;ratioP1;P1;durP2;ratioP2;P2;SDS_P1;SDS_P2;PMS_P1;PMS_P2;Temp;Humidity;BMP_temperature;BMP_pressure;BME280_temperature;BME280_humidity;BME280_pressure;Samples;Min_cycle;Max_cycle;Signal;HPM_P1;HPM_P2
2021/07/23 04:01:28;;;;;;;12.53;11.33;;;18.10;99.90;;;;;;5535450;23;20571;-63
2021/07/23 04:03:54;;;;;;;13.47;12.20;;;18.20;99.90;;;;;;5031013;28;20449;-64
2021/07/23 04:06:21;;;;;;;12.80;11.47;;;18.20;99.90;;;;;;5034111;28;20477;-63
2021/07/23 04:08:49;;;;;;;13.40;12.00;;;18.20;99.90;;;;;;5034321;28;20449;-63
2021/07/23 04:11:16;;;;;;;12.93;11.63;;;18.30;99.90;;;;;;5027766;28;20469;-64
2021/07/23 04:13:44;;;;;;;15.60;12.50;;;18.30;99.90;;;;;;5022410;28;20998;-64
2021/07/23 04:16:10;;;;;;;13.33;11.93;;;18.40;99.90;;;;;;5024711;28;20552;-64
2021/07/23 04:18:38;;;;;;;14.03;12.70;;;18.40;99.90;;;;;;5021952;28;20457;-64
2021/07/23 04:21:06;;;;;;;15.87;14.00;;;18.50;99.90;;;;;;5014779;28;20480;-65
2021/07/23 04:23:33;;;;;;;14.40;13.00;;;18.40;99.90;;;;;;5014790;28;20456;-63
2021/07/23 04:25:59;;;;;;;13.33;12.13;;;18.40;99.90;;;;;;5015594;28;20475;-63
2021/07/23 04:28:26;;;;;;;15.30;13.13;;;18.50;99.90;;;;;;5014677;28;20463;-64
2021/07/23 04:30:53;;;;;;;14.50;13.20;;;18.50;99.90;;;;;;5014254;28;20833;-62
2021/07/23 04:33:19;;;;;;;14.10;12.70;;;18.50;99.90;;;;;;5014246;28;20449;-65
2021/07/23 04:35:47;;;;;;;15.67;14.13;;;18.60;99.90;;;;;;5013704;28;20452;-63
2021/07/23 04:38:14;;;;;;;16.10;14.00;;;18.60;99.90;;;;;;5013564;28;20464;-63
2021/07/23 04:40:41;;;;;;;16.70;14.07;;;18.60;99.90;;;;;;5013372;28;20819;-63
2021/07/23 04:43:08;;;;;;;20.23;14.03;;;18.60;99.90;;;;;;5013612;28;20459;-64
2021/07/23 04:45:34;;;;;;;21.47;15.00;;;18.60;99.90;;;;;;5014011;28;20522;-62
2021/07/23 04:48:01;;;;;;;15.90;14.37;;;18.70;99.90;;;;;;5015435;28;20456;-63
2021/07/23 04:50:27;;;;;;;15.60;14.03;;;18.70;99.90;;;;;;5017938;28;20460;-63
2021/07/23 04:52:57;;;;;;;17.63;13.60;;;18.70;99.90;;;;;;5017400;28;20452;-63
2021/07/23 04:55:24;;;;;;;15.73;14.23;;;18.70;99.90;;;;;;5018600;28;20452;-63
2021/07/23 04:57:51;;;;;;;15.40;14.00;;;18.80;99.90;;;;;;5017200;28;20545;-63
2021/07/23 05:00:19;;;;;;;15.27;13.87;;;18.90;99.90;;;;;;5017077;28;20523;-63
2021/07/23 05:02:52;;;;;;;15.83;14.10;;;19.00;99.90;;;;;;5017722;28;20441;-62
2021/07/23 05:05:22;;;;;;;18.37;14.40;;;19.10;99.90;;;;;;5017003;28;20461;-63
2021/07/23 05:07:49;;;;;;;15.30;13.90;;;19.10;99.90;;;;;;5017685;28;20449;-63
2021/07/23 05:10:17;;;;;;;16.47;14.77;;;19.10;99.90;;;;;;5016571;28;20460;-63
2021/07/23 05:12:45;;;;;;;16.30;14.57;;;19.10;99.90;;;;;;5016686;28;20453;-62
2021/07/23 05:15:12;;;;;;;16.33;14.70;;;19.20;99.90;;;;;;5016492;28;20456;-62
2021/07/23 05:17:40;;;;;;;16.83;15.13;;;19.30;99.90;;;;;;5016334;28;20457;-62
2021/07/23 05:20:08;;;;;;;16.93;14.40;;;19.40;99.90;;;;;;5016097;28;20941;-63
2021/07/23 05:22:36;;;;;;;15.90;13.80;;;19.40;99.90;;;;;;5016305;28;20492;-63
2021/07/23 05:25:03;;;;;;;15.60;13.97;;;19.40;99.90;;;;;;5016202;28;20452;-62
2021/07/23 05:27:31;;;;;;;18.47;14.10;;;19.50;99.90;;;;;;5016237;28;20460;-64
2021/07/23 05:29:59;;;;;;;16.60;15.00;;;19.60;99.90;;;;;;5016129;28;20455;-63
2021/07/23 05:32:26;;;;;;;17.00;14.83;;;19.70;99.90;;;;;;5016259;28;20500;-63
2021/07/23 05:34:52;;;;;;;16.07;14.50;;;19.90;99.90;;;;;;5016257;28;20453;-63
2021/07/23 05:37:19;;;;;;;16.60;14.80;;;20.10;99.90;;;;;;5016261;28;20449;-62
2021/07/23 05:39:46;;;;;;;17.10;15.13;;;20.10;99.90;;;;;;5016725;28;20448;-62
2021/07/23 05:42:12;;;;;;;16.33;14.60;;;20.40;99.90;;;;;;5015930;28;20469;-62
2021/07/23 05:44:41;;;;;;;15.70;14.10;;;20.60;99.90;;;;;;5015591;28;20506;-63
2021/07/23 05:47:07;;;;;;;18.20;14.97;;;20.70;99.90;;;;;;5015725;28;20532;-62
2021/07/23 05:49:34;;;;;;;18.23;13.90;;;20.90;99.90;;;;;;5015676;28;20915;-63
2021/07/23 05:52:01;;;;;;;16.57;14.70;;;21.00;99.90;;;;;;5015899;28;20477;-63
2021/07/23 05:54:28;;;;;;;16.03;14.43;;;21.10;99.90;;;;;;5015753;28;20444;-62
2021/07/23 05:56:54;;;;;;;14.80;13.40;;;21.20;99.90;;;;;;5015662;28;20449;-62
2021/07/23 05:59:21;;;;;;;14.60;13.20;;;21.10;99.90;;;;;;5015843;28;20461;-63
2021/07/23 06:01:49;;;;;;;15.27;13.87;;;21.00;99.90;;;;;;5016395;28;20491;-63
2021/07/23 06:04:16;;;;;;;14.87;13.53;;;20.90;99.90;;;;;;5015641;28;20461;-63
2021/07/23 06:06:43;;;;;;;15.40;13.60;;;21.00;99.90;;;;;;5015603;28;20477;-63
2021/07/23 06:09:09;;;;;;;16.53;15.03;;;21.10;99.90;;;;;;5015591;28;20453;-64
2021/07/23 06:11:39;;;;;;;16.03;14.37;;;21.10;99.90;;;;;;5015489;28;20884;-63
2021/07/23 06:14:06;;;;;;;18.23;14.43;;;21.30;99.90;;;;;;5015508;28;20450;-62
2021/07/23 06:16:32;;;;;;;16.37;13.93;;;21.40;99.90;;;;;;5015601;28;20457;-62
2021/07/23 06:19:01;;;;;;;14.40;12.83;;;21.60;99.90;;;;;;5015608;28;20504;-62
2021/07/23 06:21:28;;;;;;;15.97;14.57;;;21.70;99.90;;;;;;5015274;28;20543;-61
2021/07/23 06:23:54;;;;;;;15.73;14.03;;;21.90;99.90;;;;;;5015345;28;20515;-61
2021/07/23 06:26:21;;;;;;;15.80;14.27;;;22.10;99.90;;;;;;5015057;28;20476;-61
2021/07/23 06:28:48;;;;;;;14.93;13.30;;;22.20;99.90;;;;;;5015404;28;20927;-62
2021/07/23 06:31:15;;;;;;;15.60;14.20;;;22.30;99.90;;;;;;5015092;28;21003;-62
2021/07/23 06:33:42;;;;;;;16.07;14.20;;;22.50;99.90;;;;;;5015155;28;20942;-61
2021/07/23 06:36:10;;;;;;;15.87;14.00;;;22.70;99.90;;;;;;5015508;28;20452;-61
2021/07/23 06:38:36;;;;;;;16.57;14.83;;;22.90;99.90;;;;;;5015208;28;20579;-62
2021/07/23 06:41:05;;;;;;;15.33;14.03;;;23.10;99.90;;;;;;5027835;28;20469;-63
2021/07/23 06:43:32;;;;;;;17.37;15.67;;;23.10;99.90;;;;;;5021851;28;20457;-62
2021/07/23 06:45:59;;;;;;;15.73;14.23;;;23.30;99.90;;;;;;5015232;28;20476;-62
2021/07/23 06:48:26;;;;;;;19.40;14.90;;;23.40;99.90;;;;;;5015013;28;20444;-63
2021/07/23 06:50:52;;;;;;;16.57;14.70;;;23.50;99.90;;;;;;5014861;28;20469;-63
2021/07/23 06:53:21;;;;;;;16.17;14.70;;;23.80;99.90;;;;;;5014392;28;20912;-62
2021/07/23 06:55:47;;;;;;;17.43;15.73;;;24.20;99.90;;;;;;5014663;28;20560;-62
2021/07/23 06:58:14;;;;;;;15.33;14.03;;;24.60;99.90;;;;;;5014605;28;20461;-62
2021/07/23 07:00:41;;;;;;;17.40;14.33;;;25.30;99.90;;;;;;5014123;28;20846;-62
2021/07/23 07:03:08;;;;;;;16.27;14.67;;;25.40;99.90;;;;;;5014772;28;20441;-62
2021/07/23 07:05:35;;;;;;;16.40;14.90;;;26.00;99.90;;;;;;5015457;28;20931;-62
2021/07/23 07:08:02;;;;;;;17.47;13.87;;;26.70;99.90;;;;;;5014698;28;20534;-61
2021/07/23 07:10:30;;;;;;;16.10;14.47;;;27.10;99.90;;;;;;5017533;28;20833;-62
2021/07/23 07:12:57;;;;;;;15.23;13.70;;;27.60;99.90;;;;;;5014463;28;20453;-62
2021/07/23 07:15:24;;;;;;;17.23;15.43;;;28.00;99.90;;;;;;5015201;28;20457;-63
2021/07/23 07:17:56;;;;;;;19.27;14.73;;;27.80;99.90;;;;;;5014441;28;20532;-62
2021/07/23 07:20:23;;;;;;;15.20;13.80;;;28.20;99.90;;;;;;5014747;28;20487;-63
2021/07/23 07:22:49;;;;;;;16.20;14.80;;;28.40;99.90;;;;;;5014216;28;20825;-63
2021/07/23 07:25:16;;;;;;;16.60;15.00;;;28.40;99.90;;;;;;5014236;28;20465;-62
2021/07/23 07:27:44;;;;;;;16.40;14.80;;;28.80;99.90;;;;;;5014123;28;20476;-62
2021/07/23 07:30:11;;;;;;;15.33;13.83;;;29.40;99.90;;;;;;5014309;28;20453;-63
2021/07/23 07:32:38;;;;;;;16.50;15.00;;;29.60;99.90;;;;;;5014814;28;20449;-62
2021/07/23 07:35:06;;;;;;;15.83;14.23;;;30.10;97.80;;;;;;5014648;28;20453;-63
2021/07/23 07:37:32;;;;;;;17.30;15.57;;;30.40;96.70;;;;;;5014055;28;20488;-63
2021/07/23 07:39:59;;;;;;;16.50;14.93;;;30.40;97.20;;;;;;5013887;28;20908;-63
2021/07/23 07:42:26;;;;;;;15.63;14.20;;;30.00;96.20;;;;;;5014006;28;20485;-64
2021/07/23 07:44:54;;;;;;;16.70;15.00;;;30.20;96.30;;;;;;5013740;28;20815;-62
2021/07/23 07:47:20;;;;;;;16.80;15.30;;;30.50;96.30;;;;;;5014091;28;20516;-62
2021/07/23 07:49:47;;;;;;;14.73;13.40;;;30.60;95.40;;;;;;5014077;28;20479;-63
2021/07/23 07:52:14;;;;;;;16.87;15.10;;;30.20;94.70;;;;;;5014050;28;20481;-63
2021/07/23 07:54:40;;;;;;;16.10;14.50;;;29.50;95.30;;;;;;5013984;28;20460;-63
2021/07/23 07:57:08;;;;;;;15.50;14.00;;;29.50;96.80;;;;;;5013871;28;20456;-62
2021/07/23 07:59:34;;;;;;;13.17;12.03;;;29.80;95.50;;;;;;5014684;28;20479;-62
2021/07/23 08:02:03;;;;;;;15.57;14.10;;;30.40;95.90;;;;;;5014153;28;20493;-62
2021/07/23 08:04:29;;;;;;;16.53;15.03;;;30.00;94.20;;;;;;5013827;28;20461;-62
2021/07/23 08:06:56;;;;;;;15.37;13.77;;;29.40;94.30;;;;;;5014376;28;20508;-63
2021/07/23 08:09:23;;;;;;;17.30;15.50;;;30.10;96.40;;;;;;5013667;28;20467;-63
2021/07/23 08:11:49;;;;;;;18.30;14.57;;;30.80;93.80;;;;;;5013695;28;20472;-62
2021/07/23 08:14:16;;;;;;;14.57;13.37;;;31.00;94.00;;;;;;5014192;28;20456;-63
2021/07/23 08:16:43;;;;;;;15.70;14.20;;;31.10;92.80;;;;;;5013727;28;20453;-62
2021/07/23 08:19:11;;;;;;;14.87;13.33;;;31.30;91.70;;;;;;5013460;28;20453;-62
2021/07/23 08:21:38;;;;;;;14.77;13.47;;;31.70;92.80;;;;;;5014445;28;20476;-62
2021/07/23 08:24:05;;;;;;;16.77;14.50;;;31.20;91.70;;;;;;5017407;28;20452;-62
2021/07/23 08:26:32;;;;;;;16.77;15.13;;;31.10;92.70;;;;;;5017961;28;20940;-62
2021/07/23 08:28:59;;;;;;;15.67;14.17;;;31.00;90.90;;;;;;5023638;28;20456;-62
2021/07/23 08:31:27;;;;;;;15.40;14.10;;;31.70;90.70;;;;;;5028369;28;20476;-63
2021/07/23 08:33:54;;;;;;;18.50;14.00;;;32.00;89.40;;;;;;5017687;28;20449;-62
2021/07/23 08:36:22;;;;;;;15.70;14.23;;;32.20;90.50;;;;;;5017226;28;20452;-62
2021/07/23 08:38:48;;;;;;;13.70;12.40;;;32.50;90.30;;;;;;5017239;28;20453;-63
2021/07/23 08:41:15;;;;;;;14.63;13.50;;;32.60;89.10;;;;;;5017003;28;20491;-62
2021/07/23 08:43:45;;;;;;;14.00;12.50;;;32.60;85.60;;;;;;5017242;28;20475;-62
2021/07/23 08:46:14;;;;;;;15.30;13.93;;;32.70;84.30;;;;;;5017091;28;20437;-63
2021/07/23 08:48:40;;;;;;;16.97;14.63;;;32.80;81.90;;;;;;5017018;28;20532;-62
2021/07/23 08:51:08;;;;;;;20.50;14.97;;;33.10;83.40;;;;;;5016532;28;20499;-62
2021/07/23 08:53:37;;;;;;;12.27;11.27;;;34.00;79.70;;;;;;5016374;28;20797;-62
2021/07/23 08:56:04;;;;;;;12.40;11.30;;;33.90;81.10;;;;;;5016399;28;20805;-61
2021/07/23 08:58:31;;;;;;;15.43;13.33;;;33.90;74.20;;;;;;5016897;28;20456;-61
2021/07/23 09:00:58;;;;;;;13.70;12.40;;;33.90;75.90;;;;;;5016906;28;20491;-62
2021/07/23 09:03:28;;;;;;;13.32;11.25;;;33.10;74.90;;;;;;5015790;28;20537;-61
2021/07/23 09:05:55;;;;;;;14.93;13.40;;;33.20;77.70;;;;;;5017494;28;20192;-60
2021/07/23 09:08:22;;;;;;;12.87;11.77;;;33.60;78.00;;;;;;5017023;28;20480;-61
2021/07/23 09:11:04;;;;;;;12.47;11.47;;;33.50;74.70;;;;;;5016471;28;20476;-61
2021/07/23 09:13:30;;;;;;;13.97;12.60;;;34.00;72.40;;;;;;5016859;28;20447;-63
2021/07/23 09:15:58;;;;;;;12.87;11.53;;;34.50;73.00;;;;;;5016664;28;20463;-63
2021/07/23 09:18:28;;;;;;;13.27;12.07;;;34.50;71.20;;;;;;5017000;28;20452;-63
2021/07/23 09:20:57;;;;;;;13.23;11.40;;;34.60;67.30;;;;;;5031016;28;20547;-63
2021/07/23 09:23:29;;;;;;;11.03;10.23;;;35.10;68.30;;;;;;5017062;28;20460;-63
2021/07/23 09:25:59;;;;;;;11.87;10.93;;;35.70;68.50;;;;;;5016289;28;20452;-63
2021/07/23 09:28:37;;;;;;;11.63;10.70;;;35.70;66.80;;;;;;5016373;28;20815;-63
2021/07/23 09:31:06;;;;;;;14.30;12.07;;;36.20;66.40;;;;;;5016298;28;20896;-62
2021/07/23 09:33:35;;;;;;;12.47;11.50;;;34.60;65.30;;;;;;5015280;28;20939;-62
2021/07/23 09:36:03;;;;;;;13.50;12.33;;;35.50;66.30;;;;;;5016000;28;20555;-63
2021/07/23 09:38:38;;;;;;;12.23;11.20;;;35.90;64.20;;;;;;5016177;28;20475;-62
2021/07/23 09:41:11;;;;;;;13.40;12.40;;;35.50;63.90;;;;;;5016072;28;20471;-63
2021/07/23 09:43:40;;;;;;;11.07;10.27;;;35.70;63.00;;;;;;5015898;28;20803;-63
2021/07/23 09:46:23;;;;;;;12.27;11.27;;;35.90;65.00;;;;;;5015984;28;20457;-64
2021/07/23 09:48:51;;;;;;;13.20;10.07;;;35.50;60.60;;;;;;5015944;28;20460;-62
2021/07/23 09:51:18;;;;;;;11.10;10.30;;;35.70;61.40;;;;;;5015805;28;20472;-63
2021/07/23 09:53:44;;;;;;;11.87;10.87;;;35.90;59.70;;;;;;5015974;28;20464;-62
2021/07/23 09:56:12;;;;;;;12.27;11.17;;;36.20;60.70;;;;;;5015839;28;20459;-64
2021/07/23 09:58:42;;;;;;;11.30;10.30;;;36.80;59.20;;;;;;5015918;28;20448;-63
2021/07/23 10:01:11;;;;;;;11.50;10.40;;;36.20;62.60;;;;;;5015732;28;20492;-63
2021/07/23 10:03:42;;;;;;;11.47;10.53;;;36.70;61.30;;;;;;5015727;28;20479;-62
2021/07/23 10:06:11;;;;;;;10.90;10.00;;;36.50;59.40;;;;;;5015688;28;20459;-62
2021/07/23 10:08:41;;;;;;;10.27;9.40;;;37.00;55.00;;;;;;5015205;28;20535;-63
2021/07/23 10:11:10;;;;;;;9.80;8.90;;;37.30;54.40;;;;;;5017367;28;20882;-63
2021/07/23 10:13:40;;;;;;;11.37;10.10;;;37.60;54.90;;;;;;5017392;28;20450;-63
2021/07/23 10:16:07;;;;;;;10.23;9.37;;;37.40;56.30;;;;;;5030833;28;20450;-63
2021/07/23 10:18:34;;;;;;;11.70;10.80;;;37.50;55.80;;;;;;5032788;28;20440;-62
2021/07/23 10:21:03;;;;;;;11.30;10.30;;;36.70;56.90;;;;;;5028412;28;20481;-63
2021/07/23 10:23:31;;;;;;;10.93;9.80;;;37.00;55.60;;;;;;5028746;28;20456;-63
2021/07/23 10:25:59;;;;;;;12.63;9.83;;;37.00;54.30;;;;;;5025749;28;20456;-62
2021/07/23 10:28:57;;;;;;;11.57;10.57;;;37.00;60.10;;;;;;5025129;28;20814;-64
2021/07/23 10:31:46;;;;;;;12.03;10.90;;;36.10;57.00;;;;;;5027540;28;20468;-63
2021/07/23 10:34:33;;;;;;;10.50;9.60;;;36.10;55.60;;;;;;5026405;28;20471;-63
2021/07/23 10:37:02;;;;;;;16.27;12.20;;;36.00;59.80;;;;;;5025483;28;20433;-63
2021/07/23 10:39:29;;;;;;;11.43;9.73;;;36.20;57.60;;;;;;5022075;28;20825;-62
2021/07/23 10:42:30;;;;;;;13.90;10.17;;;36.60;56.80;;;;;;5024888;28;20470;-62
2021/07/23 10:44:58;;;;;;;10.60;9.67;;;37.20;61.30;;;;;;5024606;28;20474;-63
2021/07/23 10:47:39;;;;;;;11.00;10.00;;;37.40;55.00;;;;;;5023412;28;20503;-64
2021/07/23 10:50:08;;;;;;;11.60;10.70;;;37.00;57.40;;;;;;5022586;28;20452;-63
2021/07/23 10:52:36;;;;;;;11.27;10.27;;;37.00;56.20;;;;;;5021553;28;20480;-63
2021/07/23 10:55:16;;;;;;;12.00;10.53;;;36.80;57.00;;;;;;5018842;28;20993;-63
2021/07/23 10:57:43;;;;;;;11.67;10.80;;;36.50;56.80;;;;;;5031773;28;20433;-64
2021/07/23 11:00:12;;;;;;;12.30;10.93;;;35.60;58.70;;;;;;5029051;28;20487;-63
2021/07/23 11:02:46;;;;;;;11.23;10.20;;;35.30;57.00;;;;;;5031710;28;20452;-62
2021/07/23 11:05:22;;;;;;;11.83;9.93;;;36.00;56.60;;;;;;5032246;28;20436;-64
2021/07/23 11:07:49;;;;;;;10.50;9.60;;;36.20;56.00;;;;;;5031841;28;20467;-63
2021/07/23 11:10:23;;;;;;;10.93;10.00;;;36.40;59.40;;;;;;5030508;28;20850;-63
2021/07/23 11:12:50;;;;;;;10.20;9.40;;;36.70;57.00;;;;;;5031994;28;20444;-63
2021/07/23 11:15:19;;;;;;;9.53;8.80;;;36.60;54.30;;;;;;5024561;28;20476;-63
2021/07/23 11:17:54;;;;;;;11.20;10.27;;;36.80;59.00;;;;;;5024880;28;20452;-64
2021/07/23 11:20:33;;;;;;;10.70;9.70;;;36.80;56.20;;;;;;5025210;28;20946;-64
2021/07/23 11:23:00;;;;;;;10.83;9.93;;;36.80;55.40;;;;;;5025815;28;20433;-63
2021/07/23 11:25:29;;;;;;;10.90;10.00;;;36.70;57.10;;;;;;5024361;28;20453;-64
2021/07/23 11:28:00;;;;;;;10.47;9.67;;;36.60;57.10;;;;;;5025344;28;21060;-63
2021/07/23 11:30:33;;;;;;;10.77;9.80;;;35.30;57.10;;;;;;5025809;28;20440;-64
2021/07/23 11:33:01;;;;;;;11.10;9.97;;;35.20;56.80;;;;;;5025476;28;20445;-64
2021/07/23 11:35:29;;;;;;;12.17;10.90;;;34.70;55.40;;;;;;5023236;28;20458;-64
2021/07/23 11:37:57;;;;;;;12.50;11.40;;;33.90;58.90;;;;;;5023947;28;20512;-64
2021/07/23 11:40:25;;;;;;;13.77;9.53;;;33.40;58.90;;;;;;5024259;28;20452;-63
2021/07/23 11:42:55;;;;;;;11.57;10.57;;;33.40;64.50;;;;;;5025667;28;20456;-63
2021/07/23 11:45:23;;;;;;;10.90;9.80;;;33.40;65.50;;;;;;5020561;28;20535;-63
2021/07/23 11:47:52;;;;;;;11.70;10.70;;;33.40;62.20;;;;;;5016891;28;20523;-62
2021/07/23 11:50:21;;;;;;;11.63;10.63;;;33.20;60.90;;;;;;5016535;28;20548;-64
2021/07/23 11:52:50;;;;;;;11.03;10.03;;;33.00;59.60;;;;;;5016296;28;20465;-63
2021/07/23 11:55:18;;;;;;;11.90;10.43;;;33.10;64.60;;;;;;5016129;28;20465;-62
2021/07/23 11:57:46;;;;;;;11.63;10.73;;;32.90;59.60;;;;;;5018962;28;20460;-62
2021/07/23 12:00:24;;;;;;;12.80;11.90;;;32.90;63.90;;;;;;5019137;28;20956;-63
2021/07/23 12:02:53;;;;;;;11.60;10.53;;;32.90;64.70;;;;;;5020251;28;20461;-64
2021/07/23 12:05:21;;;;;;;11.53;10.53;;;32.40;66.10;;;;;;5019622;28;20456;-64
2021/07/23 12:07:58;;;;;;;12.20;11.20;;;32.40;63.70;;;;;;5019701;28;20477;-64
2021/07/23 12:10:25;;;;;;;11.60;10.60;;;32.20;59.30;;;;;;5019471;28;20445;-64
2021/07/23 12:12:52;;;;;;;12.10;10.90;;;32.10;60.50;;;;;;5020677;28;20487;-63
2021/07/23 12:15:20;;;;;;;12.07;10.90;;;32.20;63.40;;;;;;5021569;28;20452;-63
2021/07/23 12:17:48;;;;;;;12.90;11.40;;;32.30;60.40;;;;;;5018909;28;20452;-63
2021/07/23 12:20:17;;;;;;;12.03;11.10;;;32.40;58.30;;;;;;5018767;28;20452;-63
2021/07/23 12:22:59;;;;;;;11.37;10.47;;;32.30;59.70;;;;;;5019249;28;20947;-63
2021/07/23 12:25:28;;;;;;;11.30;10.40;;;32.20;64.10;;;;;;5019583;28;20444;-64
2021/07/23 12:28:10;;;;;;;11.60;10.43;;;32.00;65.40;;;;;;5025726;28;20484;-64
2021/07/23 12:30:38;;;;;;;12.70;11.47;;;32.10;59.60;;;;;;5028208;28;20500;-63
2021/07/23 12:33:27;;;;;;;12.43;11.43;;;32.20;62.10;;;;;;5029820;28;20796;-64
2021/07/23 12:35:57;;;;;;;11.63;10.67;;;32.00;64.70;;;;;;5022542;28;20485;-64
2021/07/23 12:38:25;;;;;;;12.60;11.30;;;31.90;65.10;;;;;;5027151;28;20440;-64
2021/07/23 12:40:57;;;;;;;11.70;10.60;;;32.00;59.90;;;;;;5021954;28;20469;-65
2021/07/23 12:43:23;;;;;;;11.60;10.50;;;32.10;63.80;;;;;;5017718;28;20437;-64
2021/07/23 12:45:50;;;;;;;12.30;11.20;;;32.20;62.50;;;;;;5018017;28;20476;-63
2021/07/23 12:48:20;;;;;;;12.23;11.13;;;32.30;61.60;;;;;;5017339;28;20476;-63
2021/07/23 12:51:01;;;;;;;11.70;10.80;;;32.40;63.50;;;;;;5017065;28;20508;-62
2021/07/23 12:53:28;;;;;;;11.33;10.33;;;32.40;62.80;;;;;;5017066;28;20447;-63
2021/07/23 12:55:56;;;;;;;11.43;10.53;;;32.20;61.00;;;;;;5016854;28;20483;-63
2021/07/23 12:58:37;;;;;;;11.93;10.77;;;32.30;64.40;;;;;;5017058;28;20524;-63
2021/07/23 13:01:06;;;;;;;11.87;10.67;;;32.10;67.50;;;;;;5016630;28;20880;-64
2021/07/23 13:03:33;;;;;;;12.43;11.47;;;32.10;66.40;;;;;;5016367;28;20463;-63
2021/07/23 13:06:01;;;;;;;12.50;11.50;;;31.90;65.20;;;;;;5016544;28;20931;-64
2021/07/23 13:08:29;;;;;;;11.70;10.70;;;32.00;67.80;;;;;;5015284;28;20995;-65
2021/07/23 13:10:56;;;;;;;12.23;11.33;;;31.80;59.90;;;;;;5016546;28;20484;-64
2021/07/23 13:13:22;;;;;;;13.07;11.90;;;31.80;63.60;;;;;;5016410;28;20459;-63
2021/07/23 13:15:49;;;;;;;11.60;10.20;;;31.70;65.60;;;;;;5016215;28;20799;-64
2021/07/23 13:18:16;;;;;;;11.43;10.53;;;31.70;66.20;;;;;;5016304;28;20449;-63
2021/07/23 13:20:43;;;;;;;11.47;10.57;;;31.30;62.60;;;;;;5017054;28;20473;-64
2021/07/23 13:23:11;;;;;;;11.90;10.90;;;31.20;62.10;;;;;;5016466;28;20460;-64
2021/07/23 13:25:38;;;;;;;12.70;11.40;;;31.50;67.00;;;;;;5016110;28;20802;-64
2021/07/23 13:28:05;;;;;;;13.07;11.90;;;31.50;65.30;;;;;;5016244;28;20542;-63
2021/07/23 13:30:31;;;;;;;12.50;11.10;;;31.60;64.60;;;;;;5016075;28;20940;-64
2021/07/23 13:32:58;;;;;;;12.40;11.30;;;31.70;65.80;;;;;;5016194;28;20479;-64
2021/07/23 13:35:25;;;;;;;11.63;10.73;;;31.70;65.30;;;;;;5016112;28;20453;-64
2021/07/23 13:37:54;;;;;;;13.87;11.07;;;31.90;62.60;;;;;;5015992;28;20479;-64
2021/07/23 13:40:27;;;;;;;12.57;11.40;;;31.90;63.60;;;;;;5015924;28;20463;-64
2021/07/23 13:42:56;;;;;;;12.40;11.30;;;32.10;59.80;;;;;;5016231;28;20491;-65
2021/07/23 13:45:23;;;;;;;12.87;11.50;;;32.00;59.50;;;;;;5017294;28;20463;-64
2021/07/23 13:47:50;;;;;;;11.80;10.67;;;32.20;61.60;;;;;;5016728;28;20463;-64
2021/07/23 13:50:17;;;;;;;11.40;10.37;;;32.20;60.30;;;;;;5016261;28;20758;-64
2021/07/23 13:52:44;;;;;;;11.53;10.63;;;32.30;61.90;;;;;;5016168;28;20459;-64
2021/07/23 13:55:11;;;;;;;12.13;11.00;;;32.30;61.10;;;;;;5015996;28;20452;-63
2021/07/23 13:57:39;;;;;;;12.57;11.67;;;32.30;68.20;;;;;;5016269;28;20460;-64
2021/07/23 14:00:08;;;;;;;11.47;10.63;;;32.30;58.80;;;;;;5015699;28;20453;-64
2021/07/23 14:02:36;;;;;;;14.50;11.40;;;32.40;59.20;;;;;;5016387;28;20556;-64
2021/07/23 14:05:03;;;;;;;11.73;10.63;;;32.40;64.50;;;;;;5015670;28;20460;-64
2021/07/23 14:07:29;;;;;;;12.10;10.90;;;32.40;61.60;;;;;;5015733;28;20456;-65
2021/07/23 14:09:59;;;;;;;12.07;10.77;;;32.50;66.20;;;;;;5015376;28;20473;-65
2021/07/23 14:12:26;;;;;;;11.90;10.90;;;32.50;63.50;;;;;;5016357;28;20572;-64
2021/07/23 14:14:54;;;;;;;12.57;11.37;;;32.50;59.40;;;;;;5015594;28;20452;-64
2021/07/23 14:17:21;;;;;;;17.73;11.17;;;32.30;59.10;;;;;;5015357;28;20456;-63
2021/07/23 14:19:48;;;;;;;11.80;10.70;;;32.00;59.60;;;;;;5015179;28;20453;-63
2021/07/23 14:22:14;;;;;;;16.23;11.40;;;31.50;59.60;;;;;;5015221;28;20473;-64
2021/07/23 14:24:41;;;;;;;12.13;10.97;;;31.30;60.20;;;;;;5015294;28;20456;-63
2021/07/23 14:27:08;;;;;;;12.43;11.43;;;31.30;60.30;;;;;;5014908;28;20947;-63
2021/07/23 14:29:35;;;;;;;10.67;9.77;;;31.20;59.10;;;;;;5015799;28;20477;-64
2021/07/23 14:32:06;;;;;;;12.07;11.17;;;31.30;60.10;;;;;;5015188;28;20504;-63
2021/07/23 14:34:33;;;;;;;12.73;10.90;;;31.40;59.80;;;;;;5015219;28;20508;-65
2021/07/23 14:37:00;;;;;;;13.20;11.07;;;31.60;65.60;;;;;;5015896;28;20800;-64
2021/07/23 14:39:27;;;;;;;11.53;10.37;;;31.30;59.90;;;;;;5015361;28;20449;-64
2021/07/23 14:41:54;;;;;;;11.70;10.60;;;31.50;60.10;;;;;;5014662;28;20984;-64
2021/07/23 14:44:21;;;;;;;10.93;10.03;;;31.60;58.40;;;;;;5015054;28;20448;-63
2021/07/23 14:46:47;;;;;;;11.93;10.73;;;31.20;59.00;;;;;;5014853;28;20459;-63
2021/07/23 14:49:15;;;;;;;11.43;10.53;;;31.30;59.90;;;;;;5014830;28;20508;-64
2021/07/23 14:51:43;;;;;;;11.30;10.30;;;31.40;59.50;;;;;;5015486;28;20480;-63
2021/07/23 14:54:10;;;;;;;12.27;11.27;;;31.30;61.00;;;;;;5014742;28;20479;-64
2021/07/23 14:56:37;;;;;;;12.40;11.40;;;31.40;59.80;;;;;;5014666;28;20455;-64
2021/07/23 14:59:04;;;;;;;12.13;10.57;;;31.30;59.00;;;;;;5014781;28;20498;-65
2021/07/23 15:01:32;;;;;;;13.60;11.30;;;31.40;59.60;;;;;;5014673;28;20489;-64
2021/07/23 15:03:58;;;;;;;11.30;10.30;;;31.50;59.40;;;;;;5014588;28;20468;-64
2021/07/23 15:06:26;;;;;;;12.10;11.20;;;31.60;58.60;;;;;;5014664;28;20464;-64
2021/07/23 15:08:54;;;;;;;10.97;9.93;;;31.60;58.60;;;;;;5014466;28;20481;-64
2021/07/23 15:11:20;;;;;;;11.83;10.80;;;31.70;58.40;;;;;;5014303;28;20507;-64
2021/07/23 15:13:47;;;;;;;11.80;10.90;;;31.70;57.70;;;;;;5014158;28;20939;-63
2021/07/23 15:16:14;;;;;;;12.03;10.77;;;31.50;60.30;;;;;;5014043;28;20959;-64
2021/07/23 15:18:44;;;;;;;11.20;10.40;;;31.50;59.80;;;;;;5015058;28;20809;-64
2021/07/23 15:21:12;;;;;;;11.10;10.20;;;31.60;59.70;;;;;;5015582;28;20960;-63
2021/07/23 15:23:40;;;;;;;11.23;10.20;;;31.70;61.60;;;;;;5014350;28;20457;-64
2021/07/23 15:26:07;;;;;;;11.20;10.33;;;31.80;62.10;;;;;;5014296;28;20503;-63
2021/07/23 15:28:34;;;;;;;12.80;11.80;;;31.90;61.50;;;;;;5014092;28;20990;-64
2021/07/23 15:31:01;;;;;;;11.27;10.37;;;31.70;59.10;;;;;;5013507;28;20476;-63
2021/07/23 15:33:29;;;;;;;11.20;10.30;;;31.80;61.70;;;;;;5014233;28;20460;-63
2021/07/23 15:35:56;;;;;;;12.23;11.00;;;31.50;59.40;;;;;;5014414;28;20454;-63
2021/07/23 15:38:23;;;;;;;13.00;11.90;;;31.20;58.80;;;;;;5014365;28;20457;-63
2021/07/23 15:40:51;;;;;;;12.20;11.20;;;31.30;61.40;;;;;;5016346;28;20473;-62
2021/07/23 15:43:18;;;;;;;17.20;15.90;;;31.20;63.40;;;;;;5014118;28;20860;-62
2021/07/23 15:45:44;;;;;;;11.87;10.70;;;31.10;60.50;;;;;;5013995;28;20939;-62
2021/07/23 15:48:11;;;;;;;10.75;9.75;;;30.90;59.40;;;;;;5013275;28;20523;-62
2021/07/23 15:50:38;;;;;;;11.73;10.77;;;30.80;60.00;;;;;;5013950;28;20229;-62
2021/07/23 15:53:05;;;;;;;11.83;10.80;;;30.80;60.20;;;;;;5013893;28;20483;-63
2021/07/23 15:55:32;;;;;;;10.90;10.00;;;30.80;59.60;;;;;;5014096;28;20513;-63
2021/07/23 15:58:00;;;;;;;10.60;9.80;;;30.90;60.60;;;;;;5013945;28;20453;-62
2021/07/23 16:00:27;;;;;;;11.80;10.80;;;31.00;59.60;;;;;;5013670;28;20453;-63
2021/07/23 16:02:57;;;;;;;11.43;10.53;;;31.10;59.70;;;;;;5013953;28;20448;-62
2021/07/23 16:05:23;;;;;;;12.07;10.93;;;31.10;59.50;;;;;;5014060;28;20476;-63
2021/07/23 16:07:50;;;;;;;11.57;10.50;;;31.10;59.10;;;;;;5013660;28;20970;-63
2021/07/23 16:10:18;;;;;;;13.40;11.53;;;31.10;59.60;;;;;;5013789;28;20576;-64
2021/07/23 16:12:45;;;;;;;11.60;10.70;;;31.10;59.10;;;;;;5013911;28;20583;-64
2021/07/23 16:15:14;;;;;;;11.10;10.17;;;31.10;58.90;;;;;;5014007;28;20538;-63
2021/07/23 16:17:41;;;;;;;11.10;10.00;;;31.20;59.80;;;;;;5014359;28;20822;-62
2021/07/23 16:20:08;;;;;;;12.10;11.13;;;31.40;62.60;;;;;;5014497;28;20940;-63
2021/07/23 16:22:35;;;;;;;11.70;10.57;;;31.50;61.60;;;;;;5014626;28;20473;-63
2021/07/23 16:25:02;;;;;;;13.70;12.53;;;31.40;63.30;;;;;;5014802;28;20475;-63
2021/07/23 16:27:29;;;;;;;15.03;12.23;;;31.30;60.70;;;;;;5014535;28;20459;-63
2021/07/23 16:29:55;;;;;;;11.50;10.33;;;31.20;61.70;;;;;;5013988;28;20821;-64
2021/07/23 16:32:23;;;;;;;22.57;20.57;;;31.30;62.30;;;;;;5014571;28;20480;-64
2021/07/23 16:34:50;;;;;;;16.80;13.10;;;31.20;62.70;;;;;;5013695;28;20460;-64